Time;durP1;ratioP1;P1;durP2;ratioP2;P2;SDS_P1;SDS_P2;PMS_P1;PMS_P2;Temp;Humidity;BMP_temperature;BMP_pressure;BME280_temperature;BME280_humidity;BME280_pressure;Samples;Min_cycle;Max_cycle;Signal;HPM_P1;HPM_P2
2022/11/23 00:02:31;;;;;;;45.60;20.80;;;;;;;1.90;83.75;98902.48;210071;1285;141731;-71
2022/11/23 00:07:34;;;;;;;42.30;19.10;;;;;;;1.89;83.95;98914.94;210104;1294;139787;-70
2022/11/23 00:12:38;;;;;;;46.20;21.60;;;;;;;1.93;83.94;98917.02;208970;1298;140368;-69
2022/11/23 00:17:41;;;;;;;46.60;20.10;;;;;;;1.93;84.03;98918.59;209939;1297;140202;-71
2022/11/23 00:22:45;;;;;;;43.50;22.70;;;;;;;2.03;84.09;98920.44;209815;1295;140425;-71
2022/11/23 00:27:48;;;;;;;46.70;24.70;;;;;;;2.14;83.92;98919.23;209942;1295;139853;-71
2022/11/23 00:32:53;;;;;;;40.70;19.80;;;;;;;2.13;83.97;98922.11;210193;1297;140655;-70
2022/11/23 00:37:58;;;;;;;48.20;25.00;;;;;;;2.10;83.46;98928.70;210001;1293;140509;-70
2022/11/23 00:43:02;;;;;;;37.30;19.70;;;;;;;2.01;83.76;98926.29;210178;1287;140810;-70
2022/11/23 00:48:05;;;;;;;45.00;21.60;;;;;;;1.98;83.74;98932.15;210136;1297;140565;-70
2022/11/23 00:53:09;;;;;;;44.90;23.10;;;;;;;1.91;83.78;98930.67;209953;1298;141433;-68
2022/11/23 00:58:12;;;;;;;40.90;20.00;;;;;;;1.89;83.84;98925.97;209893;1295;142236;-69
2022/11/23 01:03:15;;;;;;;39.10;18.80;;;;;;;1.89;84.05;98926.79;210097;1296;140848;-68
2022/11/23 01:08:19;;;;;;;39.10;19.20;;;;;;;1.93;83.84;98925.10;209993;1295;139596;-66
2022/11/23 01:13:22;;;;;;;34.70;17.50;;;;;;;1.97;83.78;98921.11;210051;1291;141112;-67
2022/11/23 01:18:27;;;;;;;38.40;18.80;;;;;;;1.97;83.72;98925.11;209949;1298;140420;-68
2022/11/23 01:23:31;;;;;;;40.20;21.70;;;;;;;2.04;83.67;98930.30;210014;1297;141603;-67
2022/11/23 01:28:35;;;;;;;44.20;20.10;;;;;;;1.97;83.93;98927.77;209963;1297;141634;-66
2022/11/23 01:33:39;;;;;;;36.00;20.90;;;;;;;1.85;83.67;98926.50;210125;1295;141451;-67
2022/11/23 01:38:44;;;;;;;42.20;20.40;;;;;;;1.73;83.93;98928.77;209417;1297;141393;-67
2022/11/23 01:43:48;;;;;;;33.60;15.00;;;;;;;1.81;84.22;98933.73;209797;1287;141181;-67
2022/11/23 01:49:01;;;;;;;52.80;24.20;;;;;;;1.80;83.79;98928.96;207427;1298;140120;-67
2022/11/23 01:54:13;;;;;;;43.90;22.10;;;;;;;1.74;83.91;98928.30;210128;1298;140019;-66
2022/11/23 01:59:18;;;;;;;42.60;20.20;;;;;;;1.68;84.03;98927.30;210033;1288;141196;-67
2022/11/23 02:04:26;;;;;;;32.70;17.40;;;;;;;1.71;84.07;98925.49;210030;1297;139805;-66
2022/11/23 02:09:32;;;;;;;46.30;20.40;;;;;;;1.74;83.96;98928.73;210248;1303;140721;-69
2022/11/23 02:14:37;;;;;;;39.60;17.40;;;;;;;1.77;83.73;98929.91;210219;1295;141052;-69
2022/11/23 02:20:02;;;;;;;35.00;17.10;;;;;;;1.77;83.76;98933.55;210081;1295;139799;-69
2022/11/23 02:25:21;;;;;;;25.90;14.70;;;;;;;1.75;83.71;98939.90;210052;1293;139528;-69
2022/11/23 02:30:26;;;;;;;44.60;19.50;;;;;;;1.74;83.61;98938.27;210347;1287;140239;-69
2022/11/23 02:35:29;;;;;;;34.20;16.10;;;;;;;1.73;83.95;98942.07;209668;1301;141119;-69
2022/11/23 02:40:35;;;;;;;38.70;18.70;;;;;;;1.79;83.77;98933.45;207568;1287;139483;-68
2022/11/23 02:45:55;;;;;;;35.90;16.60;;;;;;;1.84;83.96;98932.20;210231;1300;141123;-67
2022/11/23 02:50:58;;;;;;;44.40;18.90;;;;;;;1.79;83.71;98929.20;210000;1295;140308;-68
2022/11/23 02:56:02;;;;;;;37.60;18.80;;;;;;;1.75;83.74;98923.05;210081;1297;161877;-68
2022/11/23 03:01:05;;;;;;;43.00;18.70;;;;;;;1.68;83.59;98929.29;210074;1298;140456;-67
2022/11/23 03:06:09;;;;;;;42.40;20.10;;;;;;;1.71;83.65;98931.07;210028;1303;140272;-68
2022/11/23 03:11:12;;;;;;;39.00;18.00;;;;;;;1.62;83.66;98929.42;210034;1294;139335;-68
2022/11/23 03:16:16;;;;;;;33.80;17.40;;;;;;;1.63;83.60;98927.92;210154;1306;139939;-68
2022/11/23 03:21:19;;;;;;;27.10;13.10;;;;;;;1.67;83.69;98934.94;210366;1301;141661;-69
2022/11/23 03:26:23;;;;;;;39.80;15.70;;;;;;;1.64;83.58;98935.64;210010;1300;140014;-69
2022/11/23 03:31:26;;;;;;;34.60;18.30;;;;;;;1.64;83.53;98948.38;210105;1300;139863;-68
2022/11/23 03:36:30;;;;;;;34.00;15.20;;;;;;;1.61;83.51;98948.77;209917;1302;139355;-69
2022/11/23 03:41:33;;;;;;;39.40;21.40;;;;;;;1.67;83.73;98944.91;210113;1293;141473;-67
2022/11/23 03:46:37;;;;;;;33.30;15.60;;;;;;;1.75;83.89;98940.27;210256;1301;139964;-68
2022/11/23 03:51:40;;;;;;;31.40;15.30;;;;;;;1.68;83.03;98935.50;210041;1303;141037;-68
2022/11/23 03:56:43;;;;;;;30.60;15.30;;;;;;;1.59;83.15;98924.79;210080;1296;140405;-69
2022/11/23 04:01:47;;;;;;;41.60;19.60;;;;;;;1.58;83.54;98926.57;208225;1294;150431;-69
2022/11/23 04:06:50;;;;;;;34.90;18.90;;;;;;;1.70;83.37;98927.07;206998;1296;140409;-68
2022/11/23 04:11:53;;;;;;;29.80;15.60;;;;;;;1.72;83.64;98925.73;209896;1290;139444;-68
2022/11/23 04:16:56;;;;;;;42.50;21.80;;;;;;;1.73;83.61;98923.84;209979;1297;139534;-68
2022/11/23 04:22:00;;;;;;;40.70;19.20;;;;;;;1.83;83.62;98922.73;210054;1297;139923;-69
2022/11/23 04:27:03;;;;;;;47.40;21.10;;;;;;;1.81;83.34;98923.21;210157;1298;140107;-67
2022/11/23 04:32:07;;;;;;;36.40;16.70;;;;;;;1.75;83.29;98923.20;210194;1300;140891;-67
2022/11/23 04:37:10;;;;;;;45.90;20.80;;;;;;;1.68;83.53;98920.63;210039;1292;140745;-68
2022/11/23 04:42:16;;;;;;;38.80;20.00;;;;;;;1.73;84.05;98923.68;210081;1292;140006;-68
2022/11/23 04:47:19;;;;;;;47.50;23.60;;;;;;;1.81;83.43;98921.52;210058;1300;140894;-69
2022/11/23 04:52:22;;;;;;;67.90;28.20;;;;;;;1.84;83.16;98923.14;210063;1292;139589;-68
2022/11/23 04:57:26;;;;;;;36.80;16.00;;;;;;;1.73;83.50;98919.11;210241;1295;140819;-68
2022/11/23 05:02:30;;;;;;;47.50;19.20;;;;;;;1.79;83.69;98919.98;210269;1294;140513;-68
2022/11/23 05:07:34;;;;;;;44.40;19.40;;;;;;;1.86;83.77;98922.17;209979;1301;139836;-68
2022/11/23 05:12:37;;;;;;;49.00;24.60;;;;;;;1.93;83.96;98922.30;210011;1295;140262;-68
2022/11/23 05:17:40;;;;;;;44.00;19.60;;;;;;;2.02;84.06;98922.38;209994;1296;139906;-68
2022/11/23 05:22:44;;;;;;;43.90;21.30;;;;;;;2.12;83.73;98927.02;209475;1293;140272;-67
2022/11/23 05:27:47;;;;;;;52.20;22.80;;;;;;;2.17;83.52;98928.58;210158;1295;142252;-68
2022/11/23 05:32:50;;;;;;;35.90;17.00;;;;;;;2.14;83.48;98930.76;210125;1295;139726;-69
2022/11/23 05:37:54;;;;;;;50.10;20.40;;;;;;;2.04;83.00;98934.52;210026;1297;139792;-70
2022/11/23 05:42:58;;;;;;;41.10;19.20;;;;;;;2.02;83.25;98937.79;210152;1296;140087;-69
2022/11/23 05:48:02;;;;;;;37.60;18.40;;;;;;;1.94;82.81;98934.29;209952;1299;140414;-67
2022/11/23 05:53:05;;;;;;;39.90;19.00;;;;;;;1.84;83.03;98938.65;210094;1295;140274;-67
2022/11/23 05:58:09;;;;;;;39.30;19.00;;;;;;;1.77;83.22;98933.64;210134;1297;140615;-67
2022/11/23 06:03:12;;;;;;;33.20;16.30;;;;;;;1.81;83.38;98927.30;210400;1295;140056;-67
2022/11/23 06:08:16;;;;;;;45.70;20.70;;;;;;;1.89;83.47;98928.44;209751;1298;139514;-67
2022/11/23 06:13:20;;;;;;;36.90;17.80;;;;;;;2.00;83.83;98930.09;209888;1297;140799;-68
2022/11/23 06:18:24;;;;;;;35.70;15.20;;;;;;;1.92;83.08;98936.30;210177;1295;141353;-67
2022/11/23 06:23:27;;;;;;;32.80;13.40;;;;;;;1.79;83.23;98941.61;210066;1299;139713;-65
2022/11/23 06:28:30;;;;;;;42.70;18.60;;;;;;;1.76;83.56;98947.66;210100;1296;139092;-67
2022/11/23 06:33:34;;;;;;;32.30;15.70;;;;;;;1.65;83.08;98953.19;210058;1303;140328;-66
2022/11/23 06:38:37;;;;;;;38.40;16.80;;;;;;;1.49;83.25;98959.20;210297;1298;139989;-68
2022/11/23 06:43:41;;;;;;;43.50;23.50;;;;;;;1.40;83.53;98959.31;210090;1295;140358;-69
2022/11/23 06:48:45;;;;;;;48.70;24.40;;;;;;;1.44;84.00;98961.71;210057;1297;139916;-71
2022/11/23 06:53:49;;;;;;;41.90;17.60;;;;;;;1.54;83.89;98966.04;209946;1303;140925;-68
2022/11/23 06:58:52;;;;;;;38.50;19.20;;;;;;;1.60;83.81;98968.98;209818;1297;140894;-67
2022/11/23 07:03:55;;;;;;;37.70;20.30;;;;;;;1.71;84.07;98970.36;210225;1297;141437;-66
2022/11/23 07:09:01;;;;;;;36.20;15.80;;;;;;;1.71;83.54;98979.41;210318;1295;140324;-66
2022/11/23 07:14:05;;;;;;;27.50;12.10;;;;;;;1.63;83.38;98989.89;210078;1301;140913;-68
2022/11/23 07:19:08;;;;;;;39.00;17.60;;;;;;;1.63;83.39;98988.23;209917;1297;140763;-69
2022/11/23 07:24:12;;;;;;;44.10;18.20;;;;;;;1.62;83.79;98987.33;210200;1295;140562;-67
2022/11/23 07:29:15;;;;;;;36.40;17.80;;;;;;;1.74;83.76;98987.11;208489;1297;140879;-67
2022/11/23 07:34:19;;;;;;;27.10;13.10;;;;;;;1.71;83.21;98988.10;209749;1295;140332;-67
2022/11/23 07:39:22;;;;;;;42.30;20.60;;;;;;;1.56;83.27;98993.44;209572;1297;140699;-66
2022/11/23 07:44:46;;;;;;;26.30;13.50;;;;;;;1.34;83.21;98993.25;210347;1293;143717;-68
2022/11/23 07:49:49;;;;;;;25.70;12.10;;;;;;;1.28;83.57;98993.92;210114;1295;152783;-67
2022/11/23 07:54:53;;;;;;;34.70;15.90;;;;;;;1.31;83.51;98999.94;209994;1292;142065;-69
2022/11/23 07:59:56;;;;;;;31.20;14.80;;;;;;;1.37;83.42;99003.98;209641;1298;140332;-68
2022/11/23 08:04:59;;;;;;;24.50;13.70;;;;;;;1.45;83.77;99009.04;208221;1296;141095;-68
2022/11/23 08:10:04;;;;;;;33.90;17.30;;;;;;;1.48;83.61;99018.30;210134;1295;153028;-67
2022/11/23 08:15:07;;;;;;;24.10;12.80;;;;;;;1.53;83.63;99027.70;210102;1296;141274;-68
2022/11/23 08:20:11;;;;;;;24.70;10.70;;;;;;;1.70;83.66;99028.48;210087;1297;140730;-68
2022/11/23 08:25:15;;;;;;;22.00;13.90;;;;;;;1.82;83.67;99031.02;208881;1299;141117;-69
2022/11/23 08:30:19;;;;;;;19.30;10.90;;;;;;;1.79;83.09;99035.20;209848;1295;152833;-67
2022/11/23 08:35:22;;;;;;;30.10;17.00;;;;;;;1.78;83.46;99038.99;209917;1297;140010;-65
2022/11/23 08:40:26;;;;;;;24.60;14.20;;;;;;;1.92;83.72;99044.25;209068;1297;140705;-68
2022/11/23 08:45:29;;;;;;;32.70;16.10;;;;;;;2.09;83.37;99047.05;210335;1288;142160;-67
2022/11/23 08:50:34;;;;;;;24.20;9.50;;;;;;;2.04;82.90;99044.23;209916;1287;141138;-68
2022/11/23 08:55:37;;;;;;;21.40;12.80;;;;;;;2.02;82.84;99046.36;207553;1288;141135;-67
2022/11/23 09:00:41;;;;;;;26.80;13.00;;;;;;;1.99;83.04;99046.23;210044;1295;141499;-67
2022/11/23 09:05:45;;;;;;;31.50;15.10;;;;;;;1.99;82.82;99046.67;210222;1280;141059;-67
2022/11/23 09:10:48;;;;;;;27.10;13.50;;;;;;;2.08;82.96;99041.66;210017;1295;140017;-69
2022/11/23 09:15:57;;;;;;;16.90;9.00;;;;;;;2.18;83.10;99031.41;209978;1297;140522;-69
2022/11/23 09:21:04;;;;;;;28.80;13.60;;;;;;;2.19;82.36;99024.94;210023;1297;140554;-67
2022/11/23 09:26:09;;;;;;;;;;;;;;;2.03;82.12;99020.49;209902;1297;142230;-65
2022/11/23 09:31:13;;;;;;;23.20;13.80;;;;;;;1.97;82.50;99023.45;210590;1297;128798;-70
2022/11/23 09:36:16;;;;;;;31.10;15.80;;;;;;;1.96;82.05;99026.45;209952;1297;141076;-71
2022/11/23 09:41:35;;;;;;;21.70;11.40;;;;;;;1.93;82.49;99017.93;210093;1300;140314;-66
2022/11/23 09:46:56;;;;;;;30.70;16.00;;;;;;;2.06;82.59;99017.48;210082;1297;142278;-69
2022/11/23 09:52:00;;;;;;;16.60;11.70;;;;;;;2.21;82.58;99015.59;209970;1303;142316;-74
2022/11/23 09:57:04;;;;;;;28.60;15.20;;;;;;;2.33;82.24;99013.49;208917;1295;140597;-68
2022/11/23 10:02:23;;;;;;;40.50;19.50;;;;;;;2.48;82.52;99003.84;208116;1291;141600;-72
2022/11/23 10:07:30;;;;;;;30.70;18.30;;;;;;;2.70;82.61;98987.39;207296;1282;139521;-69
2022/11/23 10:12:33;;;;;;;22.00;11.50;;;;;;;2.89;82.57;98974.46;206592;1295;140130;-69
2022/11/23 10:18:03;;;;;;;34.20;18.30;;;;;;;3.12;82.18;98973.74;210156;1294;139541;-72
2022/11/23 10:23:16;;;;;;;33.30;20.20;;;;;;;3.43;81.95;98958.52;209947;1297;140700;-70
2022/11/23 10:28:22;;;;;;;39.80;19.60;;;;;;;3.70;81.73;98954.61;209248;1281;139804;-71
2022/11/23 10:33:53;;;;;;;35.00;19.80;;;;;;;4.02;81.68;98960.14;206671;1297;139801;-65
2022/11/23 10:38:59;;;;;;;32.60;20.40;;;;;;;4.37;81.44;98960.77;210297;1303;140733;-68
2022/11/23 10:44:14;;;;;;;35.40;18.20;;;;;;;4.66;80.91;98950.54;209968;1295;150926;-63
2022/11/23 10:49:28;;;;;;;39.80;19.00;;;;;;;4.95;80.02;98944.34;210086;1288;141587;-63
2022/11/23 10:55:00;;;;;;;35.60;18.80;;;;;;;5.17;79.60;98942.67;209997;1297;151773;-67
2022/11/23 11:00:15;;;;;;;34.60;18.70;;;;;;;5.29;79.17;98949.52;209617;1288;302990;-67
2022/11/23 11:05:38;;;;;;;23.00;14.70;;;;;;;5.42;78.75;98949.47;210135;1295;139939;-67
2022/11/23 11:11:20;;;;;;;30.90;16.50;;;;;;;5.45;77.97;98947.86;209975;1294;247052;-65
2022/11/23 11:16:31;;;;;;;27.30;16.50;;;;;;;5.52;78.15;98943.98;210010;1296;140121;-68
2022/11/23 11:21:40;;;;;;;38.80;19.80;;;;;;;5.54;77.79;98943.92;210118;1293;139224;-64
2022/11/23 11:26:58;;;;;;;32.20;17.10;;;;;;;5.47;77.79;98943.80;210267;1295;140947;-65
2022/11/23 11:32:10;;;;;;;33.30;16.50;;;;;;;5.46;77.74;98948.66;210378;1288;139522;-62
2022/11/23 11:37:29;;;;;;;31.10;17.10;;;;;;;5.48;77.44;98943.14;210147;1297;140857;-67
2022/11/23 11:42:37;;;;;;;29.20;15.80;;;;;;;5.55;76.97;98941.02;210211;1297;142185;-65
2022/11/23 11:47:55;;;;;;;29.80;15.50;;;;;;;5.67;77.22;98937.55;210106;1294;139417;-67
2022/11/23 11:53:07;;;;;;;34.40;17.50;;;;;;;5.81;77.26;98934.32;210019;1288;150620;-70
2022/11/23 11:58:14;;;;;;;32.40;17.40;;;;;;;6.00;76.51;98927.79;210033;1290;140638;-69
2022/11/23 12:03:33;;;;;;;25.40;14.80;;;;;;;6.15;76.31;98920.00;210230;1287;141258;-67
2022/11/23 12:08:54;;;;;;;31.90;17.70;;;;;;;6.22;76.43;98913.21;210173;1294;139074;-68
2022/11/23 12:14:02;;;;;;;25.90;17.00;;;;;;;6.31;75.52;98917.58;210225;1295;140689;-69
2022/11/23 12:19:24;;;;;;;32.80;15.80;;;;;;;6.37;75.74;98915.55;210158;1289;139640;-67
2022/11/23 12:24:52;;;;;;;27.00;15.40;;;;;;;6.41;75.21;98916.27;208420;1295;140499;-65
2022/11/23 12:30:05;;;;;;;26.40;15.90;;;;;;;6.27;75.40;98927.96;206948;1295;139646;-69
2022/11/23 12:35:10;;;;;;;29.00;15.20;;;;;;;6.13;75.43;98929.84;209960;1296;140440;-70
2022/11/23 12:40:58;;;;;;;33.60;18.90;;;;;;;5.89;74.74;98931.91;210107;1297;140255;-68
2022/11/23 12:46:58;;;;;;;44.00;24.70;;;;;;;5.55;74.50;98931.02;209003;1303;140956;-69
2022/11/23 12:52:25;;;;;;;32.80;18.40;;;;;;;5.29;74.46;98930.10;206517;1303;140282;-70
2022/11/23 12:57:45;;;;;;;37.70;19.60;;;;;;;4.93;74.64;98927.98;208988;1295;139956;-68
2022/11/23 13:02:56;;;;;;;38.00;18.80;;;;;;;4.68;75.03;98931.87;210203;1280;139794;-68
2022/11/23 13:08:13;;;;;;;30.60;16.10;;;;;;;4.43;75.09;98930.93;210202;1287;139489;-67
2022/11/23 13:13:32;;;;;;;33.20;18.60;;;;;;;4.24;75.13;98935.24;210096;1295;141366;-67
2022/11/23 13:19:05;;;;;;;28.90;15.80;;;;;;;4.05;75.62;98939.18;210165;1297;139884;-66
2022/11/23 13:24:31;;;;;;;29.00;15.40;;;;;;;3.87;75.73;98932.39;210079;1297;139126;-66
2022/11/23 13:29:51;;;;;;;36.50;18.40;;;;;;;3.75;75.78;98923.12;210136;1297;139421;-67
2022/11/23 13:35:01;;;;;;;37.30;22.70;;;;;;;3.70;75.99;98922.16;210122;1288;139404;-66
2022/11/23 13:40:20;;;;;;;39.60;20.10;;;;;;;3.65;76.18;98922.20;210158;1297;139556;-66
2022/11/23 13:45:27;;;;;;;44.90;23.90;;;;;;;3.58;76.25;98929.86;210311;1298;141698;-67
2022/11/23 13:50:32;;;;;;;;;;;;;;;3.55;76.55;98947.09;210101;1300;141280;-67
2022/11/23 13:55:37;;;;;;;33.00;18.00;;;;;;;3.56;76.58;98952.40;210747;1288;126470;-66
2022/11/23 14:00:49;;;;;;;36.70;17.90;;;;;;;3.50;76.55;98952.25;209976;1297;140866;-68
2022/11/23 14:05:59;;;;;;;30.80;17.00;;;;;;;3.44;76.73;98952.10;208995;1296;139673;-67
2022/11/23 14:11:13;;;;;;;35.10;18.00;;;;;;;3.38;76.86;98954.16;209326;1296;139725;-67
2022/11/23 14:16:44;;;;;;;34.90;18.20;;;;;;;3.32;76.83;98957.80;210025;1298;140561;-69
2022/11/23 14:22:15;;;;;;;40.10;20.50;;;;;;;3.33;76.86;98957.99;210259;1295;140995;-67
2022/11/23 14:27:45;;;;;;;38.60;21.20;;;;;;;3.33;77.08;98968.82;210185;1297;140508;-67
2022/11/23 14:33:09;;;;;;;33.10;19.50;;;;;;;3.29;77.13;98981.73;210176;1287;140869;-64
2022/11/23 14:38:54;;;;;;;36.00;20.30;;;;;;;3.21;77.19;98986.91;209123;1297;139554;-63
2022/11/23 14:44:00;;;;;;;36.10;18.80;;;;;;;3.20;77.37;98989.34;207522;1288;139462;-68
2022/11/23 14:49:12;;;;;;;47.10;22.80;;;;;;;3.15;77.09;98985.98;209927;1288;141269;-65
2022/11/23 14:54:18;;;;;;;42.10;23.00;;;;;;;3.09;77.19;98983.64;210147;1288;139476;-67
2022/11/23 14:59:27;;;;;;;40.10;21.70;;;;;;;2.98;77.13;98986.90;209847;1289;139486;-67
2022/11/23 15:04:39;;;;;;;40.80;24.40;;;;;;;2.91;77.40;98994.07;210123;1297;139956;-67
2022/11/23 15:10:05;;;;;;;40.70;21.80;;;;;;;2.91;77.53;98999.34;210119;1288;140105;-69
2022/11/23 15:15:22;;;;;;;48.20;27.20;;;;;;;2.93;77.43;98999.86;210267;1297;140364;-68
2022/11/23 15:20:41;;;;;;;52.70;27.70;;;;;;;2.87;77.54;99005.64;209956;1298;139749;-70
2022/11/23 15:25:53;;;;;;;49.40;26.40;;;;;;;2.78;77.73;99005.20;210043;1305;140219;-70
2022/11/23 15:30:58;;;;;;;47.60;24.70;;;;;;;2.72;77.75;99011.44;210019;1297;140783;-68
2022/11/23 15:36:04;;;;;;;55.90;25.50;;;;;;;2.72;77.69;99014.16;209964;1297;140942;-66
2022/11/23 15:41:10;;;;;;;56.60;27.00;;;;;;;2.66;77.96;99021.04;210001;1297;140269;-63
2022/11/23 15:46:15;;;;;;;53.00;26.10;;;;;;;2.63;78.17;99015.77;209971;1303;140129;-66
2022/11/23 15:51:28;;;;;;;50.30;24.20;;;;;;;2.60;78.22;99015.55;210146;1296;139881;-68
2022/11/23 15:56:36;;;;;;;66.50;26.70;;;;;;;2.64;78.05;99019.33;208834;1297;140520;-66
2022/11/23 16:01:40;;;;;;;52.70;27.00;;;;;;;2.63;78.06;99015.23;210107;1297;140190;-66
2022/11/23 16:06:47;;;;;;;47.40;23.80;;;;;;;2.57;78.20;99020.85;210118;1298;151669;-64
2022/11/23 16:11:51;;;;;;;53.70;25.00;;;;;;;2.53;78.31;99021.20;210178;1296;140206;-70
2022/11/23 16:17:04;;;;;;;47.40;24.40;;;;;;;2.49;78.48;99020.19;209948;1288;161297;-68
2022/11/23 16:22:23;;;;;;;50.40;23.40;;;;;;;2.47;78.19;99020.67;209402;1302;140693;-69
2022/11/23 16:27:27;;;;;;;51.30;26.80;;;;;;;2.39;78.33;99021.92;209608;1294;139750;-68
2022/11/23 16:32:32;;;;;;;48.90;23.60;;;;;;;2.27;78.49;99023.21;207070;1288;139433;-63
2022/11/23 16:37:36;;;;;;;51.30;22.90;;;;;;;2.23;78.82;99023.94;209904;1300;140493;-64
2022/11/23 16:42:40;;;;;;;54.30;25.30;;;;;;;2.24;78.74;99019.98;209943;1288;140839;-68
2022/11/23 16:48:01;;;;;;;50.10;25.80;;;;;;;2.23;78.99;99015.52;208475;1294;140522;-68
2022/11/23 16:53:16;;;;;;;48.80;23.80;;;;;;;2.14;78.94;99007.69;210153;1297;139819;-68
2022/11/23 16:58:27;;;;;;;51.50;24.60;;;;;;;2.10;78.90;99006.80;209882;1297;139085;-67
2022/11/23 17:03:32;;;;;;;54.50;25.60;;;;;;;2.02;78.91;99008.19;210185;1294;141628;-64
2022/11/23 17:08:36;;;;;;;53.80;25.70;;;;;;;1.99;78.94;99005.66;209980;1297;140538;-68
2022/11/23 17:13:40;;;;;;;55.80;26.40;;;;;;;2.00;79.36;99015.79;210164;1293;141021;-68
2022/11/23 17:18:45;;;;;;;57.90;30.90;;;;;;;2.08;79.21;99007.69;210187;1287;141084;-67
2022/11/23 17:23:50;;;;;;;54.40;25.30;;;;;;;2.09;79.37;99003.84;210074;1288;140777;-67
2022/11/23 17:28:56;;;;;;;57.20;24.30;;;;;;;1.98;79.24;99011.20;210218;1295;210323;-67
2022/11/23 17:34:02;;;;;;;64.40;25.90;;;;;;;1.92;79.30;99015.06;210064;1295;140015;-66
2022/11/23 17:39:26;;;;;;;62.70;27.20;;;;;;;1.92;79.32;99015.06;210144;1295;141301;-67
2022/11/23 17:44:35;;;;;;;63.30;29.50;;;;;;;1.90;79.38;99018.52;210137;1302;140234;-69
2022/11/23 17:49:39;;;;;;;50.80;20.80;;;;;;;1.80;79.26;99006.21;209952;1295;142622;-69
2022/11/23 17:54:44;;;;;;;62.80;27.20;;;;;;;1.76;79.32;99014.60;209988;1298;204745;-69
2022/11/23 17:59:51;;;;;;;63.00;31.50;;;;;;;1.75;79.68;99025.89;210023;1296;139459;-64
2022/11/23 18:04:58;;;;;;;57.30;24.90;;;;;;;1.75;79.90;99030.25;210023;1298;141041;-67
2022/11/23 18:10:05;;;;;;;63.50;26.40;;;;;;;1.76;79.69;99024.95;210126;1296;139794;-67
2022/11/23 18:15:11;;;;;;;60.00;29.90;;;;;;;1.79;79.69;99021.57;209968;1297;140673;-65
2022/11/23 18:20:16;;;;;;;68.40;30.90;;;;;;;1.76;79.63;99030.81;209799;1297;141654;-68
2022/11/23 18:25:19;;;;;;;71.60;33.40;;;;;;;1.80;80.18;99033.55;209980;1289;140089;-67
2022/11/23 18:30:24;;;;;;;68.40;27.20;;;;;;;1.81;79.80;99031.98;207071;1288;140162;-66
2022/11/23 18:35:28;;;;;;;75.10;32.10;;;;;;;1.82;79.92;99032.98;209742;1277;141709;-66
2022/11/23 18:40:32;;;;;;;61.90;28.00;;;;;;;1.79;79.84;99037.27;210100;1300;139992;-66
2022/11/23 18:45:36;;;;;;;62.90;24.80;;;;;;;1.75;79.62;99036.51;210204;1297;141098;-65
2022/11/23 18:50:40;;;;;;;61.30;27.30;;;;;;;1.75;79.74;99036.60;209957;1293;141149;-66
2022/11/23 18:55:43;;;;;;;58.80;26.30;;;;;;;1.76;79.85;99036.96;210105;1299;142061;-68
2022/11/23 19:00:47;;;;;;;58.20;29.60;;;;;;;1.74;80.01;99034.45;210237;1293;139867;-65
2022/11/23 19:05:51;;;;;;;61.30;26.20;;;;;;;1.77;79.79;99031.95;210133;1294;141379;-67
2022/11/23 19:11:03;;;;;;;57.00;25.50;;;;;;;1.84;79.99;99037.19;209914;1295;140112;-68
2022/11/23 19:16:20;;;;;;;67.60;31.20;;;;;;;1.83;79.86;99034.52;210198;1303;140959;-64
2022/11/23 19:21:26;;;;;;;64.20;27.40;;;;;;;1.82;80.20;99042.05;210238;1302;246216;-65
2022/11/23 19:26:30;;;;;;;66.60;33.50;;;;;;;1.87;79.95;99044.73;209894;1295;141209;-64
2022/11/23 19:31:34;;;;;;;71.20;36.60;;;;;;;1.87;79.55;99046.09;210159;1300;140204;-64
2022/11/23 19:36:39;;;;;;;72.40;32.80;;;;;;;1.86;80.11;99049.56;210071;1303;139840;-64
2022/11/23 19:41:43;;;;;;;70.30;34.10;;;;;;;1.89;80.07;99049.13;209952;1295;139895;-67
2022/11/23 19:46:46;;;;;;;77.70;36.60;;;;;;;1.93;80.09;99047.00;210041;1298;141396;-67
2022/11/23 19:51:52;;;;;;;66.60;33.60;;;;;;;2.01;80.06;99043.17;210220;1295;141317;-67
2022/11/23 19:56:59;;;;;;;65.20;31.80;;;;;;;2.02;80.07;99046.05;209902;1291;146566;-65
2022/11/23 20:02:04;;;;;;;58.00;31.70;;;;;;;1.97;79.94;99048.69;210238;1297;140262;-68
2022/11/23 20:07:11;;;;;;;65.70;33.40;;;;;;;1.91;80.18;99060.63;210048;1301;139975;-68
2022/11/23 20:12:15;;;;;;;70.20;33.50;;;;;;;1.90;80.23;99067.77;210069;1296;140397;-68
2022/11/23 20:17:19;;;;;;;78.80;33.60;;;;;;;1.96;80.07;99062.59;208331;1300;140714;-66
2022/11/23 20:22:23;;;;;;;69.30;31.70;;;;;;;2.00;80.22;99053.71;210111;1295;142158;-68
2022/11/23 20:27:27;;;;;;;66.60;33.60;;;;;;;2.00;79.93;99054.23;210224;1298;140534;-67
2022/11/23 20:32:31;;;;;;;58.70;25.90;;;;;;;1.97;80.29;99055.33;210118;1301;139796;-67
2022/11/23 20:37:35;;;;;;;62.10;29.60;;;;;;;1.97;79.81;99049.17;209493;1294;141814;-65
2022/11/23 20:42:39;;;;;;;79.10;33.40;;;;;;;1.97;80.23;99047.19;209548;1294;141104;-67
2022/11/23 20:47:44;;;;;;;59.50;27.60;;;;;;;1.90;80.03;99057.75;210198;1290;139519;-67
2022/11/23 20:52:48;;;;;;;71.00;24.60;;;;;;;1.80;80.34;99061.32;210072;1298;139304;-64
2022/11/23 20:57:53;;;;;;;81.40;33.90;;;;;;;1.81;80.09;99060.64;209849;1297;140564;-66
2022/11/23 21:02:56;;;;;;;74.00;34.70;;;;;;;1.83;80.22;99055.23;209287;1304;139791;-66
2022/11/23 21:08:03;;;;;;;73.60;30.00;;;;;;;1.83;80.25;99061.33;210076;1300;139490;-67
2022/11/23 21:18:51;;;;;;;64.90;30.70;;;;;;;1.88;80.47;99074.52;209950;1303;140024;-66
2022/11/23 21:23:55;;;;;;;60.40;30.10;;;;;;;1.86;80.37;99075.85;209858;1289;140015;-66
2022/11/23 21:28:59;;;;;;;62.10;23.80;;;;;;;1.80;80.55;99081.83;210127;1287;140064;-66
2022/11/23 21:34:09;;;;;;;57.60;27.40;;;;;;;1.81;80.29;99084.16;209401;1298;140148;-66
2022/11/23 21:39:15;;;;;;;53.50;26.90;;;;;;;1.78;80.36;99084.67;210129;1296;140859;-67
2022/11/23 21:44:21;;;;;;;58.80;25.60;;;;;;;1.75;80.78;99091.73;210025;1300;140358;-68
2022/11/23 21:49:27;;;;;;;51.80;22.50;;;;;;;1.76;80.69;99085.06;209877;1300;140317;-65
2022/11/23 21:54:34;;;;;;;55.00;25.00;;;;;;;1.83;80.63;99086.66;210016;1294;150801;-69
2022/11/23 21:59:44;;;;;;;53.30;26.10;;;;;;;1.82;80.54;99086.13;209856;1292;139464;-68
2022/11/23 22:04:48;;;;;;;49.50;20.00;;;;;;;1.72;80.32;99089.33;209975;1295;140038;-69
2022/11/23 22:09:53;;;;;;;52.40;22.70;;;;;;;1.72;80.39;99094.05;210057;1293;141752;-67
2022/11/23 22:14:57;;;;;;;54.30;23.80;;;;;;;1.68;80.22;99087.92;208853;1295;141346;-67
2022/11/23 22:20:04;;;;;;;57.20;26.00;;;;;;;1.63;80.29;99091.84;208876;1297;140514;-67
2022/11/23 22:25:08;;;;;;;65.30;24.10;;;;;;;1.58;80.47;99091.28;209891;1295;139845;-68
2022/11/23 22:30:12;;;;;;;58.20;26.90;;;;;;;1.58;80.43;99092.45;210062;1292;140421;-66
2022/11/23 22:35:15;;;;;;;54.70;24.00;;;;;;;1.57;80.52;99079.60;210000;1292;142060;-67
2022/11/23 22:40:19;;;;;;;58.00;24.00;;;;;;;1.55;80.54;99097.65;209668;1289;140286;-67
2022/11/23 22:45:23;;;;;;;55.30;26.30;;;;;;;1.52;80.92;99105.05;209100;1295;139972;-64
2022/11/23 22:50:26;;;;;;;52.00;23.60;;;;;;;1.56;80.68;99093.66;209710;1297;140843;-64
2022/11/23 22:55:30;;;;;;;58.70;28.70;;;;;;;1.57;80.84;99099.12;209865;1297;140545;-62
2022/11/23 23:00:33;;;;;;;74.80;27.30;;;;;;;1.53;80.76;99099.91;208975;1288;416829;-63
2022/11/23 23:05:37;;;;;;;55.20;23.90;;;;;;;1.50;80.58;99096.90;209239;1293;141321;-66
2022/11/23 23:10:40;;;;;;;56.10;24.20;;;;;;;1.47;80.59;99089.56;210004;1297;139757;-64
2022/11/23 23:15:44;;;;;;;61.70;23.80;;;;;;;1.36;80.61;99094.34;210163;1288;150958;-70
2022/11/23 23:20:48;;;;;;;62.30;23.30;;;;;;;1.39;80.84;99110.52;210060;1293;141006;-69
2022/11/23 23:25:55;;;;;;;56.80;27.30;;;;;;;1.43;80.89;99113.47;208169;1287;140886;-63